Terminal Aerodrome Forecast
Issued by NWS Wilmington, OH

Current Version | Previous Version | Text Only | Print | Product List | Glossary Off
Versions: 1 2 3 4 5 6 7 8 9 10 11 12 13 14 15 16

196
FTUS41 KILN 171734 AAA
TAFCMH
TAF AMD
KCMH 171734Z 1718/1818 21009KT P6SM FEW250
     FM180000 21005KT P6SM SKC
     FM181500 22011KT P6SM BKN200=

USA.gov is the U.S. government's official web portal to all federal, state and local government web resources and services.